Time;durP1;ratioP1;P1;durP2;ratioP2;P2;SDS_P1;SDS_P2;PMS_P1;PMS_P2;Temp;Humidity;BMP_temperature;BMP_pressure;BME280_temperature;BME280_humidity;BME280_pressure;Samples;Min_cycle;Max_cycle;Signal;HPM_P1;HPM_P2
2023/05/11 00:00:33;;;;;;;17.45;5.45;;;;;;;17.49;27.63;99919.25;5057363;28;20040;-70
2023/05/11 00:02:58;;;;;;;16.52;4.78;;;;;;;17.50;27.56;99920.91;5040818;28;20048;-70
2023/05/11 00:05:24;;;;;;;14.07;5.00;;;;;;;17.49;27.63;99919.25;5090538;28;20109;-70
2023/05/11 00:07:50;;;;;;;13.10;4.80;;;;;;;17.54;27.38;99922.19;5073934;28;20405;-70
2023/05/11 00:10:16;;;;;;;14.05;4.90;;;;;;;17.56;27.40;99920.16;5073474;28;20101;-69
2023/05/11 00:12:42;;;;;;;22.40;5.07;;;;;;;17.52;27.51;99917.03;5072942;28;20036;-71
2023/05/11 00:15:09;;;;;;;17.60;4.90;;;;;;;17.59;27.52;99917.09;5090492;28;20531;-71
2023/05/11 00:17:35;;;;;;;8.95;4.47;;;;;;;17.57;27.30;99919.13;5040390;28;20147;-71
2023/05/11 00:20:01;;;;;;;16.13;5.15;;;;;;;17.61;27.60;99921.22;5057179;28;20147;-71
2023/05/11 00:22:31;;;;;;;10.93;4.85;;;;;;;17.58;27.49;99913.56;5042223;28;20040;-71
2023/05/11 00:24:58;;;;;;;17.65;5.53;;;;;;;17.56;27.82;99917.47;5057353;28;20055;-71
2023/05/11 00:27:24;;;;;;;15.20;4.80;;;;;;;17.46;27.80;99914.28;5073187;28;20390;-71
2023/05/11 00:29:50;;;;;;;17.20;4.90;;;;;;;17.55;27.65;99922.00;5055884;28;20078;-71
2023/05/11 00:32:16;;;;;;;14.27;5.55;;;;;;;17.56;27.73;99920.97;5056497;28;20604;-71
2023/05/11 00:34:42;;;;;;;12.07;4.28;;;;;;;17.53;27.32;99916.00;5073579;28;20040;-71
2023/05/11 00:37:08;;;;;;;16.45;4.63;;;;;;;17.58;27.19;99912.72;5038514;28;20055;-70
2023/05/11 00:39:39;;;;;;;12.40;4.90;;;;;;;17.61;27.19;99920.38;5038320;28;20390;-70
2023/05/11 00:42:05;;;;;;;12.80;4.78;;;;;;;17.71;27.58;99919.00;5088677;28;20106;-70
2023/05/11 00:44:33;;;;;;;15.63;5.00;;;;;;;17.56;27.75;99912.09;5050275;28;20056;-70
2023/05/11 00:46:59;;;;;;;21.75;4.65;;;;;;;17.63;27.74;99919.19;5017343;28;20048;-70
2023/05/11 00:49:26;;;;;;;13.45;4.60;;;;;;;17.56;27.94;99912.09;5017094;28;20056;-70
2023/05/11 00:51:52;;;;;;;17.00;4.43;;;;;;;17.64;28.00;99920.81;5035650;28;20229;-71
2023/05/11 00:54:20;;;;;;;12.60;5.10;;;;;;;17.68;27.94;99927.44;5020182;28;20506;-70
2023/05/11 00:56:47;;;;;;;7.85;4.32;;;;;;;17.58;27.84;99918.09;5018801;28;20048;-71
2023/05/11 00:59:13;;;;;;;12.32;4.25;;;;;;;17.56;27.96;99922.84;5034926;28;20406;-70
2023/05/11 01:01:39;;;;;;;8.70;4.22;;;;;;;17.51;27.81;99914.53;5035283;28;20052;-70
2023/05/11 01:04:06;;;;;;;10.30;4.72;;;;;;;17.58;27.89;99932.34;5018668;28;20048;-70
2023/05/11 01:06:41;;;;;;;15.60;4.60;;;;;;;17.81;27.99;99924.88;5018637;28;20033;-70
2023/05/11 01:09:14;;;;;;;16.33;4.15;;;;;;;17.72;28.02;99917.16;5034676;28;20062;-70
2023/05/11 01:11:47;;;;;;;17.63;4.57;;;;;;;17.76;28.09;99929.19;5034738;28;20040;-70
2023/05/11 01:14:24;;;;;;;21.08;5.13;;;;;;;17.50;28.11;99934.34;5018284;28;20586;-70
2023/05/11 01:16:55;;;;;;;18.58;4.88;;;;;;;17.78;28.48;99932.47;5039211;28;20044;-70
2023/05/11 01:19:52;;;;;;;9.25;4.03;;;;;;;17.94;28.27;99932.19;5055778;28;20050;-70
2023/05/11 01:22:27;;;;;;;9.55;4.43;;;;;;;17.49;28.32;99930.84;5073149;28;20140;-70
2023/05/11 01:25:23;;;;;;;14.75;4.72;;;;;;;17.82;28.38;99933.78;5055609;28;20051;-70
2023/05/11 01:28:09;;;;;;;12.73;3.83;;;;;;;17.84;28.16;99935.22;5031123;28;20045;-70
2023/05/11 01:30:42;;;;;;;12.13;4.53;;;;;;;17.75;28.06;99927.50;5030920;28;20056;-71
2023/05/11 01:33:10;;;;;;;9.75;3.95;;;;;;;17.63;27.98;99929.91;4998237;28;20072;-71
2023/05/11 01:35:42;;;;;;;11.70;4.35;;;;;;;17.72;28.09;99935.97;5014729;28;20040;-70
2023/05/11 01:38:09;;;;;;;;;;;;;;;17.91;27.78;99938.75;5015050;28;20056;-71
2023/05/11 01:40:36;;;;;;;11.40;3.88;;;;;;;17.59;27.76;99934.00;5014449;28;20359;-70
2023/05/11 01:43:12;;;;;;;11.70;4.22;;;;;;;17.76;27.70;99930.00;5014984;28;20059;-70
2023/05/11 01:45:44;;;;;;;9.35;3.90;;;;;;;17.76;27.99;99938.06;5011266;28;20104;-70
2023/05/11 01:48:16;;;;;;;11.15;4.07;;;;;;;17.71;27.67;99932.44;4979012;28;20088;-70
2023/05/11 01:50:43;;;;;;;11.60;4.55;;;;;;;17.60;28.08;99930.31;4998020;28;20058;-71
2023/05/11 01:53:11;;;;;;;15.10;4.55;;;;;;;17.70;27.92;99940.69;5014060;28;20534;-71
2023/05/11 01:55:38;;;;;;;16.10;4.32;;;;;;;17.69;28.08;99933.66;4982081;28;20423;-71
2023/05/11 01:58:06;;;;;;;12.73;4.18;;;;;;;17.67;28.00;99931.19;5039624;28;20094;-71
2023/05/11 02:00:32;;;;;;;13.90;4.30;;;;;;;17.53;27.91;99933.97;5089486;28;20649;-71
2023/05/11 02:03:00;;;;;;;21.30;4.75;;;;;;;17.77;28.09;99933.53;5055712;28;20040;-71
2023/05/11 02:05:27;;;;;;;18.63;5.07;;;;;;;17.69;28.12;99920.22;5055444;28;20121;-71
2023/05/11 02:07:54;;;;;;;18.65;5.05;;;;;;;17.74;27.96;99929.38;5072000;28;20044;-71
2023/05/11 02:10:21;;;;;;;22.95;5.35;;;;;;;17.73;28.18;99927.69;5054879;28;20104;-71
2023/05/11 02:12:51;;;;;;;20.60;5.22;;;;;;;17.81;28.11;99927.56;5071446;28;20047;-72
2023/05/11 02:15:21;;;;;;;15.68;5.43;;;;;;;17.86;28.19;99929.66;5071092;28;20204;-70
2023/05/11 02:17:47;;;;;;;25.45;5.47;;;;;;;17.70;28.17;99935.31;5053509;28;20184;-71
2023/05/11 02:20:14;;;;;;;22.75;5.55;;;;;;;17.89;28.10;99926.56;5053314;28;20172;-70
2023/05/11 02:22:42;;;;;;;18.80;5.40;;;;;;;17.98;28.04;99928.06;5069785;28;20551;-70
2023/05/11 02:25:08;;;;;;;17.63;5.93;;;;;;;17.92;27.93;99929.69;5086604;28;20040;-70
2023/05/11 02:27:35;;;;;;;19.13;5.68;;;;;;;17.94;28.33;99926.81;5053084;28;20044;-70
2023/05/11 02:30:07;;;;;;;23.42;5.63;;;;;;;18.14;28.14;99927.75;5070500;28;20059;-70
2023/05/11 02:32:35;;;;;;;19.35;5.82;;;;;;;18.00;28.08;99932.22;5071502;28;20059;-71
2023/05/11 02:35:07;;;;;;;22.38;5.60;;;;;;;18.10;28.29;99918.41;5055424;28;20125;-71
2023/05/11 02:37:40;;;;;;;23.63;5.65;;;;;;;18.20;28.39;99926.94;5088761;28;20040;-71
2023/05/11 02:40:15;;;;;;;22.88;5.93;;;;;;;18.24;28.46;99920.13;5071465;28;20043;-71
2023/05/11 02:42:45;;;;;;;17.58;5.68;;;;;;;18.20;28.29;99925.06;5088738;28;20352;-71
2023/05/11 02:45:14;;;;;;;23.55;5.50;;;;;;;18.18;28.50;99929.00;5055021;28;20051;-71
2023/05/11 02:47:52;;;;;;;18.30;5.82;;;;;;;18.21;28.68;99926.75;5071668;28;20043;-71
2023/05/11 02:50:23;;;;;;;16.15;5.70;;;;;;;18.13;28.80;99924.22;5071407;28;20464;-71
2023/05/11 02:52:53;;;;;;;29.15;6.78;;;;;;;18.26;28.75;99920.75;5056688;28;20117;-71
2023/05/11 02:55:19;;;;;;;24.30;5.60;;;;;;;18.13;29.03;99924.22;5059771;28;20507;-72
2023/05/11 02:57:47;;;;;;;19.05;5.57;;;;;;;18.22;29.06;99939.16;5021788;28;20060;-70
2023/05/11 03:00:13;;;;;;;19.20;5.53;;;;;;;18.14;28.99;99939.31;5022732;28;20147;-70
2023/05/11 03:02:40;;;;;;;16.80;5.85;;;;;;;18.12;29.21;99930.63;5022833;28;20494;-69
2023/05/11 03:05:06;;;;;;;22.50;5.97;;;;;;;18.18;29.48;99935.22;5055769;28;20056;-70
2023/05/11 03:07:32;;;;;;;24.35;6.25;;;;;;;18.26;29.96;99929.66;5039264;28;20044;-67
2023/05/11 03:09:59;;;;;;;23.70;6.30;;;;;;;18.32;30.09;99939.63;5055836;28;20045;-70
2023/05/11 03:12:30;;;;;;;20.90;6.10;;;;;;;18.32;30.20;99936.94;5038958;28;20765;-71
2023/05/11 03:14:59;;;;;;;26.73;6.30;;;;;;;18.59;30.23;99945.94;5023320;28;20156;-71
2023/05/11 03:17:26;;;;;;;21.83;7.05;;;;;;;18.59;30.12;99947.84;5015637;28;20065;-71
2023/05/11 03:19:53;;;;;;;25.27;6.50;;;;;;;18.61;30.35;99949.28;4999502;28;20049;-71
2023/05/11 03:22:21;;;;;;;22.80;7.68;;;;;;;18.71;30.87;99938.97;4999722;28;20384;-71
2023/05/11 03:24:47;;;;;;;27.63;6.93;;;;;;;18.62;30.95;99955.50;5015837;28;20041;-70
2023/05/11 03:27:13;;;;;;;29.15;8.57;;;;;;;18.65;30.79;99958.59;5015888;28;20065;-71
2023/05/11 03:29:43;;;;;;;31.17;8.43;;;;;;;18.77;30.83;99956.16;5051652;28;20060;-73
2023/05/11 03:32:10;;;;;;;25.17;8.02;;;;;;;18.75;30.69;99953.66;4999866;28;20052;-73
2023/05/11 03:34:40;;;;;;;33.55;8.35;;;;;;;18.72;30.37;99956.78;5035048;28;20135;-75
2023/05/11 03:37:10;;;;;;;32.10;7.70;;;;;;;18.99;30.20;99955.78;5010913;28;20044;-72
2023/05/11 03:39:37;;;;;;;25.88;7.15;;;;;;;18.89;29.91;99959.91;4995820;28;20059;-72
2023/05/11 03:42:05;;;;;;;18.67;6.32;;;;;;;19.04;29.79;99956.00;4976319;28;20530;-70
2023/05/11 03:44:34;;;;;;;27.73;6.65;;;;;;;19.12;29.57;99961.22;4978400;28;20061;-70
2023/05/11 03:47:02;;;;;;;20.17;5.78;;;;;;;19.09;29.33;99964.31;4978060;28;20045;-69
2023/05/11 03:49:28;;;;;;;30.33;6.68;;;;;;;19.25;29.25;99965.78;4999698;28;20055;-69
2023/05/11 03:51:55;;;;;;;25.58;6.40;;;;;;;19.35;29.28;99959.00;4978691;28;20131;-70
2023/05/11 03:54:23;;;;;;;26.80;6.03;;;;;;;19.31;29.04;99968.50;4995560;28;20376;-71
2023/05/11 03:56:50;;;;;;;26.17;6.72;;;;;;;19.57;29.04;99971.19;4996033;28;20046;-71
2023/05/11 03:59:18;;;;;;;25.45;5.85;;;;;;;19.53;28.88;99971.81;4996063;28;20092;-70
2023/05/11 04:01:44;;;;;;;23.98;6.28;;;;;;;19.64;28.84;99966.66;4972997;28;20784;-69
2023/05/11 04:04:13;;;;;;;29.38;6.85;;;;;;;19.85;29.00;99974.50;4940547;28;20073;-69
2023/05/11 04:06:39;;;;;;;23.85;6.30;;;;;;;19.74;28.71;99977.81;4941627;28;20660;-69
2023/05/11 04:09:12;;;;;;;24.90;5.80;;;;;;;19.88;28.79;99982.19;4943000;28;20086;-69
2023/05/11 04:11:38;;;;;;;26.90;6.25;;;;;;;20.09;28.79;99979.25;4959808;28;20065;-69
2023/05/11 04:14:06;;;;;;;35.22;6.78;;;;;;;20.11;28.34;99987.13;4945442;28;20511;-69
2023/05/11 04:16:33;;;;;;;27.88;6.25;;;;;;;20.11;28.22;99979.03;4978634;28;20046;-70
2023/05/11 04:19:00;;;;;;;23.48;6.53;;;;;;;20.26;28.09;99981.50;4979463;28;20049;-69
2023/05/11 04:21:26;;;;;;;24.00;6.55;;;;;;;20.27;28.15;99989.41;4978834;28;20541;-69
2023/05/11 04:23:52;;;;;;;21.60;6.28;;;;;;;20.27;28.10;99983.16;5014215;28;20151;-67
2023/05/11 04:26:18;;;;;;;27.13;6.07;;;;;;;20.31;28.24;99984.41;5001469;28;20048;-68
2023/05/11 04:28:44;;;;;;;16.83;6.10;;;;;;;20.32;28.19;99986.91;5001458;28;20160;-68
2023/05/11 04:31:13;;;;;;;19.63;6.28;;;;;;;20.35;28.06;99989.16;4994675;28;20064;-68
2023/05/11 04:33:39;;;;;;;26.52;5.97;;;;;;;20.36;28.02;99988.13;4994809;28;20053;-69
2023/05/11 04:36:06;;;;;;;16.42;5.70;;;;;;;20.48;28.06;99988.31;4978769;28;20049;-69
2023/05/11 04:38:31;;;;;;;20.77;5.55;;;;;;;20.43;27.88;99991.63;4999746;28;20037;-69
2023/05/11 04:41:07;;;;;;;19.33;5.57;;;;;;;20.84;27.83;99988.53;4988941;28;20152;-69
2023/05/11 04:43:35;;;;;;;18.00;5.18;;;;;;;20.48;27.73;99991.00;5011749;28;20053;-69
2023/05/11 04:46:01;;;;;;;17.38;5.68;;;;;;;20.63;27.76;99997.78;4996664;28;20380;-69
2023/05/11 04:48:32;;;;;;;23.08;6.05;;;;;;;20.95;27.45;99998.66;4978249;28;20045;-70
2023/05/11 04:50:58;;;;;;;19.67;4.68;;;;;;;20.74;27.41;99994.41;4978314;28;20145;-70
2023/05/11 04:53:28;;;;;;;18.77;5.18;;;;;;;20.79;26.95;99993.78;4976821;28;20045;-70
2023/05/11 04:55:54;;;;;;;15.45;5.18;;;;;;;20.93;26.70;99995.34;4959730;28;20052;-69
2023/05/11 04:58:20;;;;;;;15.35;4.80;;;;;;;21.16;26.61;100004.59;4945007;28;20499;-70
2023/05/11 05:00:47;;;;;;;18.42;4.50;;;;;;;21.41;26.17;99999.25;4962113;28;20053;-69
2023/05/11 05:03:14;;;;;;;18.88;4.78;;;;;;;21.61;25.72;100005.31;4981295;28;20491;-69
2023/05/11 05:05:40;;;;;;;18.33;4.82;;;;;;;21.80;25.70;100007.09;5014286;28;20063;-70
2023/05/11 05:08:06;;;;;;;20.50;4.85;;;;;;;21.94;25.25;100013.19;4998020;28;20060;-70
2023/05/11 05:10:32;;;;;;;16.25;4.72;;;;;;;22.13;25.09;100006.75;4998115;28;20068;-70
2023/05/11 05:12:58;;;;;;;20.02;5.35;;;;;;;22.19;24.81;100005.88;4997435;28;20051;-70
2023/05/11 05:15:25;;;;;;;15.90;4.15;;;;;;;22.35;24.34;100013.41;4997257;28;20064;-70
2023/05/11 05:17:51;;;;;;;18.33;4.70;;;;;;;22.48;24.02;99999.72;4997628;28;20186;-70
2023/05/11 05:20:18;;;;;;;17.08;4.35;;;;;;;22.44;24.32;99996.66;5009713;28;20044;-70
2023/05/11 05:22:44;;;;;;;22.63;4.20;;;;;;;22.43;24.38;100000.41;5040541;28;20389;-69
2023/05/11 05:25:11;;;;;;;14.40;4.15;;;;;;;22.54;24.20;99982.63;5040205;28;20138;-70
2023/05/11 05:27:37;;;;;;;17.92;3.63;;;;;;;22.46;24.29;99991.00;5057158;28;20190;-70
2023/05/11 05:30:06;;;;;;;16.65;3.65;;;;;;;22.51;24.22;99992.00;5057430;28;20082;-70
2023/05/11 05:32:33;;;;;;;16.70;3.80;;;;;;;22.48;23.69;99987.00;5054309;28;20193;-70
2023/05/11 05:34:58;;;;;;;15.60;3.50;;;;;;;22.63;23.95;99994.78;5071657;28;20123;-70
2023/05/11 05:37:24;;;;;;;7.60;3.00;;;;;;;22.88;23.45;99985.50;5054467;28;20048;-70
2023/05/11 05:39:51;;;;;;;10.93;2.97;;;;;;;23.18;23.36;99990.91;5071154;28;20504;-70
2023/05/11 05:42:17;;;;;;;16.10;3.75;;;;;;;23.52;22.60;99984.78;5037626;28;20040;-70
2023/05/11 05:44:43;;;;;;;10.02;2.47;;;;;;;23.87;22.29;99990.25;5054544;28;20052;-70
2023/05/11 05:47:10;;;;;;;12.82;2.60;;;;;;;24.16;21.61;99983.91;5038046;28;20067;-70
2023/05/11 05:49:37;;;;;;;9.52;2.40;;;;;;;24.32;20.88;99988.63;5071238;28;20041;-70
2023/05/11 05:52:05;;;;;;;13.00;1.90;;;;;;;24.45;20.37;99982.91;5038542;28;20044;-70
2023/05/11 05:54:31;;;;;;;8.18;2.03;;;;;;;24.43;20.39;99977.72;5071024;28;20037;-70
2023/05/11 05:56:57;;;;;;;9.85;2.15;;;;;;;24.40;20.56;99988.25;5070934;28;20495;-70
2023/05/11 05:59:23;;;;;;;9.43;2.00;;;;;;;24.16;20.68;99984.72;5037608;28;20098;-70
2023/05/11 06:01:54;;;;;;;4.53;2.33;;;;;;;23.98;20.55;99976.72;5054928;28;20029;-70
2023/05/11 06:04:23;;;;;;;5.18;1.90;;;;;;;23.76;20.47;99980.19;5070724;28;20040;-70
2023/05/11 06:06:48;;;;;;;6.45;1.90;;;;;;;23.67;20.56;99995.19;5070634;28;20044;-69
2023/05/11 06:09:14;;;;;;;6.53;2.00;;;;;;;23.58;21.17;99994.69;5070430;28;20094;-69
2023/05/11 06:11:42;;;;;;;9.32;2.05;;;;;;;23.72;21.54;99987.16;5070644;28;20048;-70
2023/05/11 06:14:08;;;;;;;9.65;2.35;;;;;;;23.59;21.45;99996.34;5071217;28;20120;-70
2023/05/11 06:16:34;;;;;;;12.48;2.45;;;;;;;23.58;21.67;100005.56;5021078;28;20094;-70
2023/05/11 06:19:00;;;;;;;7.38;2.60;;;;;;;23.61;22.04;100001.53;5070807;28;20050;-70
2023/05/11 06:21:26;;;;;;;17.60;2.70;;;;;;;23.66;21.81;100001.66;5054032;28;20044;-69
2023/05/11 06:23:53;;;;;;;7.75;2.30;;;;;;;23.71;21.50;100004.50;5070833;28;20153;-70
2023/05/11 06:26:19;;;;;;;9.90;2.83;;;;;;;23.72;21.45;100006.16;5070481;28;20044;-70
2023/05/11 06:28:46;;;;;;;13.25;2.55;;;;;;;23.80;21.45;100009.34;5056441;28;20044;-70
2023/05/11 06:31:14;;;;;;;8.80;2.65;;;;;;;23.89;21.34;100009.84;5073962;28;20143;-70
2023/05/11 06:33:41;;;;;;;6.70;2.30;;;;;;;23.99;21.07;100007.38;5058198;28;20040;-69
2023/05/11 06:36:15;;;;;;;11.82;2.60;;;;;;;24.23;21.47;100009.84;5074251;28;20394;-69
2023/05/11 06:38:41;;;;;;;16.58;2.85;;;;;;;24.42;20.97;100015.97;5058110;28;20040;-70
2023/05/11 06:41:10;;;;;;;12.45;3.08;;;;;;;24.74;20.79;100012.63;5074600;28;20043;-70
2023/05/11 06:43:37;;;;;;;16.20;2.92;;;;;;;25.20;20.28;100013.53;5020222;28;20049;-70
2023/05/11 06:46:03;;;;;;;5.45;2.10;;;;;;;25.51;19.27;100021.22;5003940;28;20052;-70
2023/05/11 06:48:31;;;;;;;7.10;2.70;;;;;;;25.76;18.91;100022.47;5020032;28;20056;-70
2023/05/11 06:50:58;;;;;;;17.58;2.83;;;;;;;26.04;18.78;100006.09;4987875;28;20545;-69
2023/05/11 06:53:23;;;;;;;7.10;2.20;;;;;;;26.36;18.44;100017.16;5019983;28;20171;-70
2023/05/11 06:55:50;;;;;;;18.02;2.80;;;;;;;26.58;18.18;100019.91;5019867;28;20044;-70
2023/05/11 06:58:19;;;;;;;6.05;1.92;;;;;;;26.07;18.03;100018.38;5019741;28;20060;-70
2023/05/11 07:00:45;;;;;;;6.03;2.20;;;;;;;26.14;17.87;100019.84;5019433;28;20049;-70
2023/05/11 07:03:11;;;;;;;4.60;2.03;;;;;;;25.62;18.38;100015.69;5019937;28;20522;-70
2023/05/11 07:05:38;;;;;;;4.97;1.95;;;;;;;25.95;18.13;100017.59;5036048;28;20068;-70
2023/05/11 07:08:04;;;;;;;11.80;2.20;;;;;;;26.41;17.80;100023.53;4987360;28;20071;-70
2023/05/11 07:10:31;;;;;;;7.32;1.65;;;;;;;26.86;16.88;100015.16;4986877;28;20111;-70
2023/05/11 07:12:57;;;;;;;7.38;1.90;;;;;;;26.73;17.42;100022.84;5003330;28;20076;-70
2023/05/11 07:15:23;;;;;;;6.22;1.98;;;;;;;26.88;16.85;100018.41;5018331;28;20398;-70
2023/05/11 07:17:49;;;;;;;6.75;2.00;;;;;;;27.06;16.97;100022.72;5056989;28;20044;-70
2023/05/11 07:20:16;;;;;;;6.63;2.33;;;;;;;27.08;16.92;100023.28;5040142;28;20049;-70
2023/05/11 07:22:42;;;;;;;6.00;1.60;;;;;;;26.62;16.71;100021.06;5040411;28;20048;-70
2023/05/11 07:25:10;;;;;;;5.28;1.80;;;;;;;26.87;16.76;100021.41;5056702;28;20153;-71
2023/05/11 07:27:36;;;;;;;4.40;1.65;;;;;;;27.18;16.39;100024.25;5040129;28;20036;-70
2023/05/11 07:30:04;;;;;;;6.40;1.80;;;;;;;27.81;15.90;100018.88;5073073;28;20048;-70
2023/05/11 07:32:34;;;;;;;7.70;1.90;;;;;;;27.83;15.72;100026.81;5073200;28;20066;-70
2023/05/11 07:34:59;;;;;;;4.30;2.40;;;;;;;27.13;16.23;100026.91;5056512;28;20482;-70
2023/05/11 07:37:26;;;;;;;5.22;1.90;;;;;;;26.90;16.70;100018.16;5039986;28;20094;-70
2023/05/11 07:39:53;;;;;;;5.43;2.22;;;;;;;26.74;16.78;100024.53;5056149;28;20060;-70
2023/05/11 07:42:18;;;;;;;4.15;1.88;;;;;;;26.72;17.15;100026.66;5056300;28;20037;-70
2023/05/11 07:44:45;;;;;;;7.88;2.30;;;;;;;26.60;17.32;100024.00;5073239;28;20051;-70
2023/05/11 07:47:12;;;;;;;10.50;3.00;;;;;;;27.17;17.01;100019.03;5073269;28;20040;-70
2023/05/11 07:49:38;;;;;;;4.60;2.15;;;;;;;29.23;15.51;100024.09;5056174;28;20044;-70
2023/05/11 07:52:04;;;;;;;9.63;2.03;;;;;;;31.02;14.09;100026.97;5072836;28;20036;-70
2023/05/11 07:54:29;;;;;;;14.90;8.18;;;;;;;32.04;13.14;100024.09;5056150;28;20048;-70
2023/05/11 07:56:55;;;;;;;7.03;2.20;;;;;;;32.40;12.56;100024.56;5039565;28;20044;-70
2023/05/11 07:59:21;;;;;;;10.70;2.35;;;;;;;32.58;12.69;100018.34;5056160;28;20041;-70
2023/05/11 08:01:47;;;;;;;7.00;2.63;;;;;;;34.05;11.67;100019.56;5039394;28;20044;-71
2023/05/11 08:04:13;;;;;;;11.25;2.60;;;;;;;35.77;10.30;100022.34;5073104;28;20086;-71
2023/05/11 08:06:39;;;;;;;11.35;2.78;;;;;;;37.46;9.37;100013.13;5055945;28;20453;-71
2023/05/11 08:09:05;;;;;;;12.00;2.80;;;;;;;38.81;8.41;100009.59;5072378;28;20051;-71
2023/05/11 08:11:31;;;;;;;7.00;2.70;;;;;;;39.21;8.37;100019.97;5072406;28;20055;-71
2023/05/11 08:13:57;;;;;;;6.00;2.30;;;;;;;39.80;7.52;100023.44;5072397;28;20475;-71
2023/05/11 08:16:23;;;;;;;7.47;2.55;;;;;;;38.53;8.08;100014.75;5072627;28;20044;-71
2023/05/11 08:18:48;;;;;;;9.20;2.40;;;;;;;36.93;9.19;100007.00;5072847;28;20048;-71
2023/05/11 08:21:16;;;;;;;11.73;2.78;;;;;;;35.41;9.96;100012.09;5072579;28;20044;-71
2023/05/11 08:23:42;;;;;;;12.40;2.70;;;;;;;34.05;10.67;100010.47;5072193;28;20036;-71
2023/05/11 08:26:09;;;;;;;9.73;2.97;;;;;;;33.01;11.86;99994.44;5072114;28;20048;-71
2023/05/11 08:28:36;;;;;;;10.35;2.80;;;;;;;32.05;12.23;100001.00;5072153;28;20037;-70
2023/05/11 08:31:01;;;;;;;6.63;2.85;;;;;;;31.30;12.69;99993.34;5072030;28;20067;-70
2023/05/11 08:33:29;;;;;;;15.10;2.70;;;;;;;30.86;13.39;100003.47;5038644;28;20040;-70
2023/05/11 08:35:55;;;;;;;9.77;2.80;;;;;;;29.82;14.10;100008.00;5071696;28;20097;-70
2023/05/11 08:38:21;;;;;;;10.68;3.53;;;;;;;29.13;14.58;100000.25;5071817;28;20040;-70
2023/05/11 08:40:47;;;;;;;11.20;2.78;;;;;;;28.47;15.26;99994.78;5072139;28;20551;-70
2023/05/11 08:43:17;;;;;;;7.30;3.03;;;;;;;27.65;15.73;99997.16;5072022;28;20036;-70
2023/05/11 08:45:48;;;;;;;13.38;2.97;;;;;;;27.76;16.16;99988.78;5055139;28;20097;-70
2023/05/11 08:48:16;;;;;;;10.07;2.60;;;;;;;28.44;15.78;99987.06;5055126;28;20474;-70
2023/05/11 08:50:46;;;;;;;7.72;2.50;;;;;;;32.26;13.27;99996.91;5038070;28;20044;-70
2023/05/11 08:53:13;;;;;;;;;;;;;;;35.59;10.51;100002.84;5055613;28;20044;-71
2023/05/11 08:55:41;;;;;;;11.00;2.33;;;;;;;37.13;9.56;100006.41;5022439;28;19923;-71
2023/05/11 08:58:07;;;;;;;10.20;2.20;;;;;;;38.80;8.69;100010.75;5071681;28;20433;-72
2023/05/11 09:00:34;;;;;;;10.13;2.50;;;;;;;37.20;9.36;99993.69;5038318;28;20170;-71
2023/05/11 09:03:00;;;;;;;11.65;2.92;;;;;;;37.17;9.25;99999.06;5054893;28;20127;-71
2023/05/11 09:05:26;;;;;;;15.35;3.00;;;;;;;36.57;10.02;100000.84;5038220;28;20182;-72
2023/05/11 09:07:57;;;;;;;8.80;2.67;;;;;;;33.42;11.24;100014.78;5038304;28;20044;-71
2023/05/11 09:10:24;;;;;;;7.03;2.65;;;;;;;29.73;14.11;99985.00;5054599;28;20048;-71
2023/05/11 09:12:50;;;;;;;9.40;2.35;;;;;;;28.41;15.56;99982.97;5055262;28;20386;-70
2023/05/11 09:15:17;;;;;;;15.75;2.58;;;;;;;26.86;16.80;99973.41;5071555;28;20044;-70
2023/05/11 09:17:42;;;;;;;10.80;2.33;;;;;;;27.17;16.96;99972.69;5038102;28;20040;-70
2023/05/11 09:20:09;;;;;;;13.38;2.83;;;;;;;28.49;16.11;99963.38;5071244;28;20090;-70
2023/05/11 09:22:45;;;;;;;6.93;2.45;;;;;;;30.01;14.64;99982.53;5071273;28;20051;-70
2023/05/11 09:25:12;;;;;;;12.02;2.53;;;;;;;30.61;14.34;99982.41;5038007;28;20477;-71
2023/05/11 09:27:43;;;;;;;14.25;3.10;;;;;;;31.23;13.98;99968.09;5071145;28;20059;-71
2023/05/11 09:30:14;;;;;;;15.63;2.70;;;;;;;32.48;12.97;99980.78;5070980;28;20052;-71
2023/05/11 09:32:49;;;;;;;8.10;1.98;;;;;;;32.56;12.93;99980.13;5054651;28;20490;-71
2023/05/11 09:35:29;;;;;;;17.35;2.38;;;;;;;31.75;13.53;99965.53;5071313;28;20131;-71
2023/05/11 09:38:11;;;;;;;7.53;2.30;;;;;;;30.27;14.60;99959.50;5071168;28;20429;-70
2023/05/11 09:40:38;;;;;;;9.90;2.72;;;;;;;29.69;15.49;99956.56;5054390;28;20063;-70
2023/05/11 09:43:16;;;;;;;11.70;2.90;;;;;;;32.62;13.07;99956.94;5054313;28;20431;-71
2023/05/11 09:45:45;;;;;;;10.90;3.38;;;;;;;35.83;11.14;99957.50;5071033;28;20044;-71
2023/05/11 09:48:32;;;;;;;9.13;2.92;;;;;;;38.84;9.12;99964.47;5071245;28;20037;-71
2023/05/11 09:51:07;;;;;;;8.80;2.15;;;;;;;40.04;8.15;99953.97;5037740;28;20044;-71
2023/05/11 09:53:44;;;;;;;9.65;2.53;;;;;;;39.57;7.99;99944.31;5038042;28;20051;-71
2023/05/11 09:56:12;;;;;;;9.63;2.30;;;;;;;39.52;8.28;99936.97;5070822;28;20047;-71
2023/05/11 09:58:47;;;;;;;11.15;2.47;;;;;;;41.18;7.36;99930.28;5037798;28;20078;-72
2023/05/11 10:01:14;;;;;;;13.98;2.92;;;;;;;42.71;6.75;99915.31;5054369;28;20062;-72
2023/05/11 10:03:51;;;;;;;10.45;2.40;;;;;;;44.75;5.61;99924.88;5058024;28;20036;-72
2023/05/11 10:06:28;;;;;;;8.57;2.58;;;;;;;45.82;5.12;99920.28;5074570;28;20032;-73
2023/05/11 10:08:54;;;;;;;8.13;2.63;;;;;;;46.36;4.40;99911.94;5075825;28;20052;-73
2023/05/11 10:11:21;;;;;;;7.80;2.60;;;;;;;47.09;4.33;99911.63;5020945;28;20059;-72
2023/05/11 10:13:48;;;;;;;11.63;2.40;;;;;;;47.62;4.33;99918.28;5037531;28;20049;-72
2023/05/11 10:16:15;;;;;;;9.52;2.22;;;;;;;48.07;3.65;99910.34;5037041;28;20205;-72
2023/05/11 10:18:44;;;;;;;10.23;2.03;;;;;;;48.63;3.46;99902.69;5021257;28;20053;-73
2023/05/11 10:21:10;;;;;;;7.60;1.92;;;;;;;49.06;3.47;99906.19;5020307;28;20502;-73
2023/05/11 10:23:37;;;;;;;8.90;2.15;;;;;;;49.42;3.43;99902.03;5037055;28;20049;-71
2023/05/11 10:26:08;;;;;;;7.25;2.30;;;;;;;49.85;3.14;99909.03;5023478;28;20051;-72
2023/05/11 10:28:36;;;;;;;12.55;2.30;;;;;;;50.26;2.94;99904.25;5036546;28;20048;-73
2023/05/11 10:31:03;;;;;;;11.57;2.60;;;;;;;50.79;2.55;99900.13;5036883;28;20059;-73
2023/05/11 10:33:30;;;;;;;14.15;2.20;;;;;;;50.96;2.42;99897.09;5021510;28;20353;-73
2023/05/11 10:35:57;;;;;;;10.23;2.10;;;;;;;50.35;2.52;99893.28;5019805;28;20099;-73
2023/05/11 10:38:23;;;;;;;10.43;2.10;;;;;;;50.66;2.41;99893.38;5020326;28;20045;-72
2023/05/11 10:40:51;;;;;;;7.40;1.65;;;;;;;50.44;2.71;99893.59;5019922;28;20037;-73
2023/05/11 10:43:27;;;;;;;8.27;2.00;;;;;;;48.67;3.05;99889.34;5019739;28;20403;-72
2023/05/11 10:46:12;;;;;;;7.93;1.80;;;;;;;47.24;3.86;99870.31;5020291;28;20087;-73
2023/05/11 10:49:27;;;;;;;6.85;2.33;;;;;;;45.69;4.30;99876.78;5034952;28;20094;-72
2023/05/11 10:52:03;;;;;;;10.07;2.17;;;;;;;43.31;5.30;99871.88;5052586;28;20471;-71
2023/05/11 10:54:48;;;;;;;8.38;2.20;;;;;;;40.96;6.29;99863.09;5073870;28;20043;-71
2023/05/11 10:57:36;;;;;;;9.48;2.42;;;;;;;38.84;7.50;99858.91;5036173;28;20037;-71
2023/05/11 11:00:16;;;;;;;17.92;2.10;;;;;;;37.19;9.11;99866.56;4987368;28;20075;-71
2023/05/11 11:02:44;;;;;;;19.63;2.38;;;;;;;34.96;10.44;99855.75;4999872;28;20075;-71
2023/05/11 11:05:14;;;;;;;61.97;4.10;;;;;;;32.43;12.03;99868.06;4975720;28;20053;-71
2023/05/11 11:08:06;;;;;;;88.63;5.15;;;;;;;30.40;13.78;99878.59;5030422;28;20056;-71
2023/05/11 11:10:36;;;;;;;39.97;2.38;;;;;;;28.91;15.26;99884.75;5003990;28;20037;-72
2023/05/11 11:13:03;;;;;;;18.08;2.33;;;;;;;27.76;16.69;99886.97;5019013;28;20201;-71
2023/05/11 11:15:54;;;;;;;26.75;2.42;;;;;;;27.16;18.45;99897.38;5018769;28;20041;-71
2023/05/11 11:18:33;;;;;;;10.63;2.05;;;;;;;26.16;20.18;99910.66;5035681;28;20147;-70
2023/05/11 11:21:00;;;;;;;14.70;2.15;;;;;;;25.52;21.85;99900.47;5019831;28;20235;-71
2023/05/11 11:23:42;;;;;;;13.57;2.20;;;;;;;25.66;20.95;99902.56;4980194;28;20526;-70
2023/05/11 11:26:14;;;;;;;2.40;1.15;;;;;;;25.27;20.28;99908.16;4996121;28;20046;-70
2023/05/11 11:29:01;;;;;;;3.13;1.02;;;;;;;25.35;20.59;99919.50;4987043;28;20170;-70
2023/05/11 11:31:31;;;;;;;4.82;1.42;;;;;;;24.68;21.90;99915.81;4999803;28;20103;-70
2023/05/11 11:34:18;;;;;;;9.00;1.20;;;;;;;23.65;23.87;99914.03;5003886;28;20046;-70